sensor_id;sensor_type;location;lat;lon;timestamp;P1;durP1;ratioP1;P2;durP2;ratioP2
57828;SDS011;43657;52.698;6.314;2022-09-17T00:00:57;10.90;;;1.95;;
57828;SDS011;43657;52.698;6.314;2022-09-17T00:03:23;10.05;;;2.03;;
57828;SDS011;43657;52.698;6.314;2022-09-17T00:05:57;15.63;;;2.22;;
57828;SDS011;43657;52.698;6.314;2022-09-17T00:08:24;11.80;;;2.22;;
57828;SDS011;43657;52.698;6.314;2022-09-17T00:10:50;12.98;;;2.30;;
57828;SDS011;43657;52.698;6.314;2022-09-17T00:13:16;13.70;;;2.75;;
57828;SDS011;43657;52.698;6.314;2022-09-17T00:15:42;12.48;;;2.80;;
57828;SDS011;43657;52.698;6.314;2022-09-17T00:18:09;10.13;;;2.45;;
57828;SDS011;43657;52.698;6.314;2022-09-17T00:20:36;12.85;;;2.33;;
57828;SDS011;43657;52.698;6.314;2022-09-17T00:23:03;9.27;;;2.15;;
57828;SDS011;43657;52.698;6.314;2022-09-17T00:25:29;15.57;;;2.97;;
57828;SDS011;43657;52.698;6.314;2022-09-17T00:27:55;9.48;;;2.65;;
57828;SDS011;43657;52.698;6.314;2022-09-17T00:30:21;11.70;;;2.95;;
57828;SDS011;43657;52.698;6.314;2022-09-17T00:32:46;9.35;;;4.03;;
57828;SDS011;43657;52.698;6.314;2022-09-17T00:35:12;11.35;;;3.35;;
57828;SDS011;43657;52.698;6.314;2022-09-17T00:37:37;11.70;;;3.22;;
57828;SDS011;43657;52.698;6.314;2022-09-17T00:40:03;8.55;;;2.33;;
57828;SDS011;43657;52.698;6.314;2022-09-17T00:42:29;11.98;;;2.30;;
57828;SDS011;43657;52.698;6.314;2022-09-17T00:44:55;10.73;;;2.30;;
57828;SDS011;43657;52.698;6.314;2022-09-17T00:47:23;19.17;;;2.83;;
57828;SDS011;43657;52.698;6.314;2022-09-17T00:50:09;11.68;;;2.00;;
57828;SDS011;43657;52.698;6.314;2022-09-17T00:52:42;9.77;;;1.80;;
57828;SDS011;43657;52.698;6.314;2022-09-17T00:55:18;9.77;;;1.90;;
57828;SDS011;43657;52.698;6.314;2022-09-17T00:57:48;9.65;;;1.98;;
57828;SDS011;43657;52.698;6.314;2022-09-17T01:00:16;9.90;;;1.35;;
57828;SDS011;43657;52.698;6.314;2022-09-17T01:02:42;13.82;;;2.47;;
57828;SDS011;43657;52.698;6.314;2022-09-17T01:05:08;10.73;;;1.77;;
57828;SDS011;43657;52.698;6.314;2022-09-17T01:07:40;10.82;;;1.95;;
57828;SDS011;43657;52.698;6.314;2022-09-17T01:10:30;7.38;;;2.10;;
57828;SDS011;43657;52.698;6.314;2022-09-17T01:18:32;10.73;;;2.20;;
57828;SDS011;43657;52.698;6.314;2022-09-17T01:35:53;8.20;;;1.52;;
57828;SDS011;43657;52.698;6.314;2022-09-17T01:38:37;9.50;;;2.42;;
57828;SDS011;43657;52.698;6.314;2022-09-17T01:41:11;10.02;;;1.95;;
57828;SDS011;43657;52.698;6.314;2022-09-17T01:46:13;13.75;;;2.55;;
57828;SDS011;43657;52.698;6.314;2022-09-17T01:48:44;11.23;;;1.90;;
57828;SDS011;43657;52.698;6.314;2022-09-17T01:51:14;15.52;;;2.38;;
57828;SDS011;43657;52.698;6.314;2022-09-17T01:53:45;13.88;;;2.05;;
57828;SDS011;43657;52.698;6.314;2022-09-17T01:56:18;9.82;;;2.08;;
57828;SDS011;43657;52.698;6.314;2022-09-17T02:01:20;9.32;;;2.22;;
57828;SDS011;43657;52.698;6.314;2022-09-17T02:03:51;10.27;;;1.88;;
57828;SDS011;43657;52.698;6.314;2022-09-17T02:06:24;9.05;;;1.80;;
57828;SDS011;43657;52.698;6.314;2022-09-17T02:08:55;10.10;;;2.05;;
57828;SDS011;43657;52.698;6.314;2022-09-17T02:11:24;9.70;;;2.00;;
57828;SDS011;43657;52.698;6.314;2022-09-17T02:13:55;8.13;;;1.60;;
57828;SDS011;43657;52.698;6.314;2022-09-17T02:16:28;10.20;;;2.05;;
57828;SDS011;43657;52.698;6.314;2022-09-17T02:19:01;6.75;;;1.70;;
57828;SDS011;43657;52.698;6.314;2022-09-17T02:27:06;7.78;;;1.30;;
57828;SDS011;43657;52.698;6.314;2022-09-17T02:29:43;12.40;;;2.53;;
57828;SDS011;43657;52.698;6.314;2022-09-17T02:32:10;12.93;;;3.50;;
57828;SDS011;43657;52.698;6.314;2022-09-17T02:34:36;11.82;;;2.97;;
57828;SDS011;43657;52.698;6.314;2022-09-17T02:37:03;11.70;;;2.05;;
57828;SDS011;43657;52.698;6.314;2022-09-17T02:39:29;9.93;;;2.17;;
57828;SDS011;43657;52.698;6.314;2022-09-17T02:50:10;8.93;;;2.35;;
57828;SDS011;43657;52.698;6.314;2022-09-17T02:55:17;8.05;;;1.60;;
57828;SDS011;43657;52.698;6.314;2022-09-17T03:00:24;5.78;;;1.30;;
57828;SDS011;43657;52.698;6.314;2022-09-17T03:02:57;6.82;;;1.42;;
57828;SDS011;43657;52.698;6.314;2022-09-17T03:05:36;7.70;;;1.45;;
57828;SDS011;43657;52.698;6.314;2022-09-17T03:08:05;5.25;;;1.65;;
57828;SDS011;43657;52.698;6.314;2022-09-17T03:10:36;5.00;;;0.98;;
57828;SDS011;43657;52.698;6.314;2022-09-17T03:13:01;6.95;;;1.52;;
57828;SDS011;43657;52.698;6.314;2022-09-17T03:15:28;7.65;;;1.45;;
57828;SDS011;43657;52.698;6.314;2022-09-17T03:17:53;6.63;;;1.40;;
57828;SDS011;43657;52.698;6.314;2022-09-17T03:20:19;7.45;;;1.45;;
57828;SDS011;43657;52.698;6.314;2022-09-17T03:22:45;7.95;;;1.60;;
57828;SDS011;43657;52.698;6.314;2022-09-17T03:25:11;8.15;;;2.22;;
57828;SDS011;43657;52.698;6.314;2022-09-17T03:27:36;5.75;;;1.73;;
57828;SDS011;43657;52.698;6.314;2022-09-17T03:30:02;7.47;;;1.60;;
57828;SDS011;43657;52.698;6.314;2022-09-17T03:32:29;6.72;;;2.05;;
57828;SDS011;43657;52.698;6.314;2022-09-17T03:34:54;10.27;;;3.40;;
57828;SDS011;43657;52.698;6.314;2022-09-17T03:37:20;7.80;;;3.30;;
57828;SDS011;43657;52.698;6.314;2022-09-17T03:39:45;8.40;;;2.58;;
57828;SDS011;43657;52.698;6.314;2022-09-17T03:42:11;10.07;;;2.33;;
57828;SDS011;43657;52.698;6.314;2022-09-17T03:44:37;13.07;;;2.53;;
57828;SDS011;43657;52.698;6.314;2022-09-17T03:47:02;6.07;;;1.48;;
57828;SDS011;43657;52.698;6.314;2022-09-17T03:49:28;8.25;;;1.65;;
57828;SDS011;43657;52.698;6.314;2022-09-17T03:51:53;8.20;;;1.70;;
57828;SDS011;43657;52.698;6.314;2022-09-17T03:54:19;9.13;;;1.80;;
57828;SDS011;43657;52.698;6.314;2022-09-17T03:56:45;9.82;;;1.80;;
57828;SDS011;43657;52.698;6.314;2022-09-17T03:59:10;8.10;;;1.70;;
57828;SDS011;43657;52.698;6.314;2022-09-17T04:01:36;8.00;;;1.60;;
57828;SDS011;43657;52.698;6.314;2022-09-17T04:04:02;9.60;;;1.50;;
57828;SDS011;43657;52.698;6.314;2022-09-17T04:06:28;9.57;;;1.90;;
57828;SDS011;43657;52.698;6.314;2022-09-17T04:08:54;7.25;;;1.92;;
57828;SDS011;43657;52.698;6.314;2022-09-17T04:11:20;4.97;;;1.35;;
57828;SDS011;43657;52.698;6.314;2022-09-17T04:13:46;11.43;;;1.80;;
57828;SDS011;43657;52.698;6.314;2022-09-17T04:16:12;8.20;;;1.98;;
57828;SDS011;43657;52.698;6.314;2022-09-17T04:18:38;7.82;;;1.80;;
57828;SDS011;43657;52.698;6.314;2022-09-17T04:21:03;5.20;;;1.42;;
57828;SDS011;43657;52.698;6.314;2022-09-17T04:23:30;7.20;;;1.65;;
57828;SDS011;43657;52.698;6.314;2022-09-17T04:25:56;10.23;;;2.38;;
57828;SDS011;43657;52.698;6.314;2022-09-17T04:28:21;8.57;;;2.03;;
57828;SDS011;43657;52.698;6.314;2022-09-17T04:30:47;7.45;;;2.10;;
57828;SDS011;43657;52.698;6.314;2022-09-17T04:33:13;9.77;;;2.58;;
57828;SDS011;43657;52.698;6.314;2022-09-17T04:35:38;7.18;;;2.47;;
57828;SDS011;43657;52.698;6.314;2022-09-17T04:38:04;11.77;;;3.17;;
57828;SDS011;43657;52.698;6.314;2022-09-17T04:40:30;8.45;;;2.00;;
57828;SDS011;43657;52.698;6.314;2022-09-17T04:42:56;9.68;;;2.33;;
57828;SDS011;43657;52.698;6.314;2022-09-17T04:45:23;9.02;;;1.88;;
57828;SDS011;43657;52.698;6.314;2022-09-17T04:47:49;8.30;;;1.88;;
57828;SDS011;43657;52.698;6.314;2022-09-17T04:50:16;11.50;;;2.10;;
57828;SDS011;43657;52.698;6.314;2022-09-17T04:52:43;12.63;;;2.60;;
57828;SDS011;43657;52.698;6.314;2022-09-17T04:55:09;7.22;;;2.13;;
57828;SDS011;43657;52.698;6.314;2022-09-17T04:57:35;9.68;;;2.28;;
57828;SDS011;43657;52.698;6.314;2022-09-17T05:00:00;10.48;;;2.00;;
57828;SDS011;43657;52.698;6.314;2022-09-17T05:02:27;11.02;;;1.80;;
57828;SDS011;43657;52.698;6.314;2022-09-17T05:04:53;9.68;;;1.92;;
57828;SDS011;43657;52.698;6.314;2022-09-17T05:07:21;6.43;;;2.03;;
57828;SDS011;43657;52.698;6.314;2022-09-17T05:09:46;9.55;;;1.75;;
57828;SDS011;43657;52.698;6.314;2022-09-17T05:12:12;6.60;;;1.50;;
57828;SDS011;43657;52.698;6.314;2022-09-17T05:14:38;4.85;;;1.48;;
57828;SDS011;43657;52.698;6.314;2022-09-17T05:17:03;6.10;;;1.23;;
57828;SDS011;43657;52.698;6.314;2022-09-17T05:19:29;5.90;;;1.50;;
57828;SDS011;43657;52.698;6.314;2022-09-17T05:21:55;8.65;;;1.50;;
57828;SDS011;43657;52.698;6.314;2022-09-17T05:24:20;7.55;;;1.58;;
57828;SDS011;43657;52.698;6.314;2022-09-17T05:26:46;6.70;;;1.52;;
57828;SDS011;43657;52.698;6.314;2022-09-17T05:29:11;7.82;;;1.90;;
57828;SDS011;43657;52.698;6.314;2022-09-17T05:31:37;8.40;;;1.80;;
57828;SDS011;43657;52.698;6.314;2022-09-17T05:34:02;10.90;;;2.03;;
57828;SDS011;43657;52.698;6.314;2022-09-17T05:36:28;7.38;;;1.40;;
57828;SDS011;43657;52.698;6.314;2022-09-17T05:38:53;9.18;;;1.55;;
57828;SDS011;43657;52.698;6.314;2022-09-17T05:41:19;7.97;;;1.63;;
57828;SDS011;43657;52.698;6.314;2022-09-17T05:43:45;14.73;;;2.30;;
57828;SDS011;43657;52.698;6.314;2022-09-17T05:46:10;7.13;;;1.30;;
57828;SDS011;43657;52.698;6.314;2022-09-17T05:48:36;6.28;;;1.80;;
57828;SDS011;43657;52.698;6.314;2022-09-17T05:51:01;7.88;;;1.52;;
57828;SDS011;43657;52.698;6.314;2022-09-17T05:53:27;10.00;;;1.85;;
57828;SDS011;43657;52.698;6.314;2022-09-17T05:55:56;7.85;;;1.80;;
57828;SDS011;43657;52.698;6.314;2022-09-17T05:58:23;7.03;;;1.50;;
57828;SDS011;43657;52.698;6.314;2022-09-17T06:00:49;7.75;;;2.15;;
57828;SDS011;43657;52.698;6.314;2022-09-17T06:03:15;10.05;;;1.65;;
57828;SDS011;43657;52.698;6.314;2022-09-17T06:05:42;7.78;;;1.67;;
57828;SDS011;43657;52.698;6.314;2022-09-17T06:08:16;8.90;;;1.60;;
57828;SDS011;43657;52.698;6.314;2022-09-17T06:10:41;9.35;;;2.38;;
57828;SDS011;43657;52.698;6.314;2022-09-17T06:13:07;14.07;;;2.40;;
57828;SDS011;43657;52.698;6.314;2022-09-17T06:15:32;9.07;;;2.20;;
57828;SDS011;43657;52.698;6.314;2022-09-17T06:17:58;8.65;;;2.50;;
57828;SDS011;43657;52.698;6.314;2022-09-17T06:20:24;9.38;;;1.80;;
57828;SDS011;43657;52.698;6.314;2022-09-17T06:22:54;6.50;;;1.67;;
57828;SDS011;43657;52.698;6.314;2022-09-17T06:25:21;6.47;;;2.00;;
57828;SDS011;43657;52.698;6.314;2022-09-17T06:27:47;7.00;;;2.05;;
57828;SDS011;43657;52.698;6.314;2022-09-17T06:30:13;8.55;;;1.58;;
57828;SDS011;43657;52.698;6.314;2022-09-17T06:32:38;7.57;;;1.70;;
57828;SDS011;43657;52.698;6.314;2022-09-17T06:35:04;9.23;;;1.92;;
57828;SDS011;43657;52.698;6.314;2022-09-17T06:37:31;8.65;;;2.08;;
57828;SDS011;43657;52.698;6.314;2022-09-17T06:39:57;5.93;;;1.40;;
57828;SDS011;43657;52.698;6.314;2022-09-17T06:42:25;5.90;;;1.25;;
57828;SDS011;43657;52.698;6.314;2022-09-17T06:44:52;5.03;;;1.08;;
57828;SDS011;43657;52.698;6.314;2022-09-17T06:47:18;8.10;;;1.67;;
57828;SDS011;43657;52.698;6.314;2022-09-17T06:49:43;7.63;;;1.20;;
57828;SDS011;43657;52.698;6.314;2022-09-17T06:52:09;6.72;;;1.63;;
57828;SDS011;43657;52.698;6.314;2022-09-17T06:54:35;4.93;;;1.30;;
57828;SDS011;43657;52.698;6.314;2022-09-17T06:57:00;8.05;;;1.38;;
57828;SDS011;43657;52.698;6.314;2022-09-17T06:59:26;7.97;;;1.63;;
57828;SDS011;43657;52.698;6.314;2022-09-17T07:01:52;5.72;;;1.27;;
57828;SDS011;43657;52.698;6.314;2022-09-17T07:04:17;4.95;;;1.20;;
57828;SDS011;43657;52.698;6.314;2022-09-17T07:06:43;7.55;;;1.70;;
57828;SDS011;43657;52.698;6.314;2022-09-17T07:09:09;7.70;;;1.42;;
57828;SDS011;43657;52.698;6.314;2022-09-17T07:11:36;6.55;;;1.38;;
57828;SDS011;43657;52.698;6.314;2022-09-17T07:14:02;6.25;;;1.30;;
57828;SDS011;43657;52.698;6.314;2022-09-17T07:16:28;5.80;;;1.30;;
57828;SDS011;43657;52.698;6.314;2022-09-17T07:18:56;5.05;;;1.27;;
57828;SDS011;43657;52.698;6.314;2022-09-17T07:21:22;5.25;;;1.27;;
57828;SDS011;43657;52.698;6.314;2022-09-17T07:23:47;4.93;;;1.00;;
57828;SDS011;43657;52.698;6.314;2022-09-17T07:26:15;6.05;;;1.45;;
57828;SDS011;43657;52.698;6.314;2022-09-17T07:28:41;4.38;;;1.05;;
57828;SDS011;43657;52.698;6.314;2022-09-17T07:31:08;3.47;;;1.40;;
57828;SDS011;43657;52.698;6.314;2022-09-17T07:33:35;3.72;;;1.30;;
57828;SDS011;43657;52.698;6.314;2022-09-17T07:36:02;5.38;;;1.15;;
57828;SDS011;43657;52.698;6.314;2022-09-17T07:38:30;3.70;;;1.00;;
57828;SDS011;43657;52.698;6.314;2022-09-17T07:40:59;5.38;;;1.20;;
57828;SDS011;43657;52.698;6.314;2022-09-17T07:43:27;5.05;;;1.20;;
57828;SDS011;43657;52.698;6.314;2022-09-17T07:45:55;5.60;;;1.20;;
57828;SDS011;43657;52.698;6.314;2022-09-17T07:48:22;5.70;;;1.08;;
57828;SDS011;43657;52.698;6.314;2022-09-17T07:50:48;4.55;;;0.90;;
57828;SDS011;43657;52.698;6.314;2022-09-17T07:53:14;4.70;;;1.08;;
57828;SDS011;43657;52.698;6.314;2022-09-17T07:55:40;3.60;;;0.90;;
57828;SDS011;43657;52.698;6.314;2022-09-17T07:58:06;2.63;;;0.77;;
57828;SDS011;43657;52.698;6.314;2022-09-17T08:00:32;3.30;;;0.85;;
57828;SDS011;43657;52.698;6.314;2022-09-17T08:02:58;3.60;;;0.95;;
57828;SDS011;43657;52.698;6.314;2022-09-17T08:05:24;3.45;;;0.80;;
57828;SDS011;43657;52.698;6.314;2022-09-17T08:07:51;2.58;;;0.80;;
57828;SDS011;43657;52.698;6.314;2022-09-17T08:10:18;5.25;;;0.80;;
57828;SDS011;43657;52.698;6.314;2022-09-17T08:12:47;4.72;;;1.00;;
57828;SDS011;43657;52.698;6.314;2022-09-17T08:15:16;5.20;;;1.20;;
57828;SDS011;43657;52.698;6.314;2022-09-17T08:17:43;2.42;;;0.60;;
57828;SDS011;43657;52.698;6.314;2022-09-17T08:20:10;3.20;;;0.60;;
57828;SDS011;43657;52.698;6.314;2022-09-17T08:22:37;2.83;;;0.60;;
57828;SDS011;43657;52.698;6.314;2022-09-17T08:25:03;2.15;;;0.60;;
57828;SDS011;43657;52.698;6.314;2022-09-17T08:27:30;2.55;;;0.88;;
57828;SDS011;43657;52.698;6.314;2022-09-17T08:29:55;2.63;;;0.85;;
57828;SDS011;43657;52.698;6.314;2022-09-17T08:32:22;2.90;;;0.60;;
57828;SDS011;43657;52.698;6.314;2022-09-17T08:34:48;4.53;;;0.80;;
57828;SDS011;43657;52.698;6.314;2022-09-17T08:37:13;4.90;;;0.88;;
57828;SDS011;43657;52.698;6.314;2022-09-17T08:39:39;2.50;;;0.85;;
57828;SDS011;43657;52.698;6.314;2022-09-17T08:44:43;3.45;;;0.80;;
57828;SDS011;43657;52.698;6.314;2022-09-17T08:47:15;3.00;;;0.70;;
57828;SDS011;43657;52.698;6.314;2022-09-17T08:49:53;5.78;;;1.00;;
57828;SDS011;43657;52.698;6.314;2022-09-17T08:52:42;6.38;;;0.70;;
57828;SDS011;43657;52.698;6.314;2022-09-17T08:55:31;5.35;;;0.70;;
57828;SDS011;43657;52.698;6.314;2022-09-17T09:00:45;3.42;;;0.70;;
57828;SDS011;43657;52.698;6.314;2022-09-17T09:05:58;3.03;;;0.80;;
57828;SDS011;43657;52.698;6.314;2022-09-17T09:08:27;6.45;;;1.00;;
57828;SDS011;43657;52.698;6.314;2022-09-17T09:11:12;6.40;;;0.80;;
57828;SDS011;43657;52.698;6.314;2022-09-17T09:16:18;2.33;;;0.55;;
57828;SDS011;43657;52.698;6.314;2022-09-17T09:18:55;2.15;;;0.60;;
57828;SDS011;43657;52.698;6.314;2022-09-17T09:21:33;6.25;;;0.82;;
57828;SDS011;43657;52.698;6.314;2022-09-17T09:24:09;5.97;;;0.65;;
57828;SDS011;43657;52.698;6.314;2022-09-17T09:29:31;8.38;;;1.13;;
57828;SDS011;43657;52.698;6.314;2022-09-17T09:32:23;7.35;;;1.20;;
57828;SDS011;43657;52.698;6.314;2022-09-17T09:35:12;4.90;;;1.20;;
57828;SDS011;43657;52.698;6.314;2022-09-17T09:40:50;4.97;;;1.20;;
57828;SDS011;43657;52.698;6.314;2022-09-17T09:43:45;6.90;;;1.17;;
57828;SDS011;43657;52.698;6.314;2022-09-17T09:46:23;8.18;;;1.05;;
57828;SDS011;43657;52.698;6.314;2022-09-17T09:57:45;8.75;;;1.17;;
57828;SDS011;43657;52.698;6.314;2022-09-17T10:00:23;7.32;;;1.52;;
57828;SDS011;43657;52.698;6.314;2022-09-17T10:06:08;7.22;;;1.10;;
57828;SDS011;43657;52.698;6.314;2022-09-17T10:15:32;5.53;;;0.90;;
57828;SDS011;43657;52.698;6.314;2022-09-17T10:18:11;6.32;;;1.42;;
57828;SDS011;43657;52.698;6.314;2022-09-17T10:20:59;8.48;;;1.20;;
57828;SDS011;43657;52.698;6.314;2022-09-17T10:23:39;8.23;;;1.25;;
57828;SDS011;43657;52.698;6.314;2022-09-17T10:26:24;3.92;;;0.85;;
57828;SDS011;43657;52.698;6.314;2022-09-17T10:29:00;6.82;;;1.20;;
57828;SDS011;43657;52.698;6.314;2022-09-17T10:31:47;5.65;;;0.98;;
57828;SDS011;43657;52.698;6.314;2022-09-17T10:34:24;6.53;;;1.63;;
57828;SDS011;43657;52.698;6.314;2022-09-17T10:36:52;5.43;;;1.00;;
57828;SDS011;43657;52.698;6.314;2022-09-17T10:39:38;8.02;;;1.45;;
57828;SDS011;43657;52.698;6.314;2022-09-17T10:42:12;8.18;;;0.80;;
57828;SDS011;43657;52.698;6.314;2022-09-17T10:44:49;4.90;;;0.73;;
57828;SDS011;43657;52.698;6.314;2022-09-17T10:47:48;5.00;;;0.50;;
57828;SDS011;43657;52.698;6.314;2022-09-17T10:50:29;4.53;;;0.65;;
57828;SDS011;43657;52.698;6.314;2022-09-17T10:55:53;6.60;;;0.80;;
57828;SDS011;43657;52.698;6.314;2022-09-17T11:01:56;7.00;;;0.77;;
57828;SDS011;43657;52.698;6.314;2022-09-17T11:04:58;7.90;;;1.15;;
57828;SDS011;43657;52.698;6.314;2022-09-17T11:08:07;6.93;;;1.30;;
57828;SDS011;43657;52.698;6.314;2022-09-17T11:10:49;7.75;;;1.05;;
57828;SDS011;43657;52.698;6.314;2022-09-17T11:13:49;7.38;;;0.90;;
57828;SDS011;43657;52.698;6.314;2022-09-17T11:26:03;3.45;;;0.57;;
57828;SDS011;43657;52.698;6.314;2022-09-17T11:36:39;3.33;;;0.70;;
57828;SDS011;43657;52.698;6.314;2022-09-17T11:39:17;3.53;;;0.57;;
57828;SDS011;43657;52.698;6.314;2022-09-17T11:41:53;2.63;;;0.45;;
57828;SDS011;43657;52.698;6.314;2022-09-17T11:50:49;3.30;;;0.63;;
57828;SDS011;43657;52.698;6.314;2022-09-17T11:53:38;5.25;;;1.10;;
57828;SDS011;43657;52.698;6.314;2022-09-17T11:56:26;2.63;;;0.60;;
57828;SDS011;43657;52.698;6.314;2022-09-17T12:05:59;6.32;;;1.05;;
57828;SDS011;43657;52.698;6.314;2022-09-17T12:11:54;5.75;;;1.45;;
57828;SDS011;43657;52.698;6.314;2022-09-17T12:14:20;4.50;;;0.80;;
57828;SDS011;43657;52.698;6.314;2022-09-17T12:17:08;3.80;;;0.80;;
57828;SDS011;43657;52.698;6.314;2022-09-17T12:20:04;5.50;;;1.10;;
57828;SDS011;43657;52.698;6.314;2022-09-17T12:40:56;6.28;;;1.15;;
57828;SDS011;43657;52.698;6.314;2022-09-17T12:47:19;8.15;;;1.35;;
57828;SDS011;43657;52.698;6.314;2022-09-17T12:55:25;8.73;;;1.65;;
57828;SDS011;43657;52.698;6.314;2022-09-17T13:03:48;7.50;;;1.70;;
57828;SDS011;43657;52.698;6.314;2022-09-17T13:17:27;11.63;;;2.35;;
57828;SDS011;43657;52.698;6.314;2022-09-17T13:20:04;13.25;;;1.92;;
57828;SDS011;43657;52.698;6.314;2022-09-17T13:23:01;12.68;;;1.90;;
57828;SDS011;43657;52.698;6.314;2022-09-17T13:25:52;9.93;;;2.08;;
57828;SDS011;43657;52.698;6.314;2022-09-17T13:28:41;11.43;;;2.45;;
57828;SDS011;43657;52.698;6.314;2022-09-17T13:31:11;13.13;;;1.83;;
57828;SDS011;43657;52.698;6.314;2022-09-17T13:33:56;11.45;;;2.03;;
57828;SDS011;43657;52.698;6.314;2022-09-17T13:39:09;9.35;;;1.45;;
57828;SDS011;43657;52.698;6.314;2022-09-17T13:45:07;6.68;;;1.45;;
57828;SDS011;43657;52.698;6.314;2022-09-17T13:50:39;7.45;;;1.33;;
57828;SDS011;43657;52.698;6.314;2022-09-17T13:56:02;7.68;;;1.60;;
57828;SDS011;43657;52.698;6.314;2022-09-17T13:59:24;9.85;;;1.67;;
57828;SDS011;43657;52.698;6.314;2022-09-17T14:02:49;7.88;;;1.67;;
57828;SDS011;43657;52.698;6.314;2022-09-17T14:05:21;8.77;;;1.70;;
57828;SDS011;43657;52.698;6.314;2022-09-17T14:08:13;6.82;;;1.60;;
57828;SDS011;43657;52.698;6.314;2022-09-17T14:10:53;6.22;;;1.80;;
57828;SDS011;43657;52.698;6.314;2022-09-17T14:22:07;6.22;;;1.30;;
57828;SDS011;43657;52.698;6.314;2022-09-17T14:30:29;6.28;;;1.05;;
57828;SDS011;43657;52.698;6.314;2022-09-17T14:35:55;7.80;;;1.52;;
57828;SDS011;43657;52.698;6.314;2022-09-17T14:49:24;7.15;;;0.90;;
57828;SDS011;43657;52.698;6.314;2022-09-17T14:51:56;8.70;;;1.00;;
57828;SDS011;43657;52.698;6.314;2022-09-17T14:54:29;4.07;;;0.90;;
57828;SDS011;43657;52.698;6.314;2022-09-17T14:56:57;6.00;;;1.20;;
57828;SDS011;43657;52.698;6.314;2022-09-17T14:59:37;5.03;;;1.30;;
57828;SDS011;43657;52.698;6.314;2022-09-17T15:04:53;4.72;;;0.85;;
57828;SDS011;43657;52.698;6.314;2022-09-17T15:07:19;6.10;;;1.00;;
57828;SDS011;43657;52.698;6.314;2022-09-17T15:09:46;4.72;;;0.90;;
57828;SDS011;43657;52.698;6.314;2022-09-17T15:12:13;6.13;;;1.13;;
57828;SDS011;43657;52.698;6.314;2022-09-17T15:14:42;4.30;;;1.05;;
57828;SDS011;43657;52.698;6.314;2022-09-17T15:17:11;4.75;;;0.80;;
57828;SDS011;43657;52.698;6.314;2022-09-17T15:19:40;5.50;;;1.13;;
57828;SDS011;43657;52.698;6.314;2022-09-17T15:27:38;7.38;;;1.15;;
57828;SDS011;43657;52.698;6.314;2022-09-17T15:32:40;9.15;;;1.30;;
57828;SDS011;43657;52.698;6.314;2022-09-17T15:37:55;8.25;;;1.77;;
57828;SDS011;43657;52.698;6.314;2022-09-17T15:40:27;6.53;;;1.05;;
57828;SDS011;43657;52.698;6.314;2022-09-17T15:42:58;5.53;;;1.50;;
57828;SDS011;43657;52.698;6.314;2022-09-17T15:45:44;6.32;;;1.58;;
57828;SDS011;43657;52.698;6.314;2022-09-17T15:50:58;9.05;;;1.85;;
57828;SDS011;43657;52.698;6.314;2022-09-17T15:53:29;7.47;;;1.40;;
57828;SDS011;43657;52.698;6.314;2022-09-17T16:01:35;9.07;;;1.52;;
57828;SDS011;43657;52.698;6.314;2022-09-17T16:11:28;7.63;;;1.90;;
57828;SDS011;43657;52.698;6.314;2022-09-17T16:13:55;9.32;;;1.70;;
57828;SDS011;43657;52.698;6.314;2022-09-17T16:16:23;10.20;;;1.90;;
57828;SDS011;43657;52.698;6.314;2022-09-17T16:18:52;10.77;;;1.80;;
57828;SDS011;43657;52.698;6.314;2022-09-17T16:21:18;9.98;;;1.73;;
57828;SDS011;43657;52.698;6.314;2022-09-17T16:23:44;8.32;;;2.00;;
57828;SDS011;43657;52.698;6.314;2022-09-17T16:26:20;10.75;;;1.90;;
57828;SDS011;43657;52.698;6.314;2022-09-17T16:28:49;10.80;;;2.15;;
57828;SDS011;43657;52.698;6.314;2022-09-17T16:31:18;10.23;;;3.00;;
57828;SDS011;43657;52.698;6.314;2022-09-17T16:33:44;13.35;;;2.30;;
57828;SDS011;43657;52.698;6.314;2022-09-17T16:36:10;9.50;;;2.28;;
57828;SDS011;43657;52.698;6.314;2022-09-17T16:38:35;11.45;;;2.83;;
57828;SDS011;43657;52.698;6.314;2022-09-17T16:41:06;10.23;;;2.42;;
57828;SDS011;43657;52.698;6.314;2022-09-17T16:43:32;10.35;;;2.20;;
57828;SDS011;43657;52.698;6.314;2022-09-17T16:45:59;8.63;;;1.92;;
57828;SDS011;43657;52.698;6.314;2022-09-17T16:48:29;10.48;;;1.63;;
57828;SDS011;43657;52.698;6.314;2022-09-17T16:50:56;9.35;;;2.13;;
57828;SDS011;43657;52.698;6.314;2022-09-17T16:53:21;11.32;;;1.98;;
57828;SDS011;43657;52.698;6.314;2022-09-17T16:55:47;9.57;;;2.08;;
57828;SDS011;43657;52.698;6.314;2022-09-17T16:58:13;12.48;;;3.53;;
57828;SDS011;43657;52.698;6.314;2022-09-17T17:00:41;13.82;;;3.53;;
57828;SDS011;43657;52.698;6.314;2022-09-17T17:03:08;11.77;;;2.63;;
57828;SDS011;43657;52.698;6.314;2022-09-17T17:05:38;14.63;;;4.18;;
57828;SDS011;43657;52.698;6.314;2022-09-17T17:08:04;11.70;;;2.85;;
57828;SDS011;43657;52.698;6.314;2022-09-17T17:10:30;9.25;;;2.45;;
57828;SDS011;43657;52.698;6.314;2022-09-17T17:12:56;9.20;;;1.80;;
57828;SDS011;43657;52.698;6.314;2022-09-17T17:15:21;8.38;;;1.92;;
57828;SDS011;43657;52.698;6.314;2022-09-17T17:17:48;10.20;;;1.90;;
57828;SDS011;43657;52.698;6.314;2022-09-17T17:20:14;14.80;;;1.92;;
57828;SDS011;43657;52.698;6.314;2022-09-17T17:22:40;11.68;;;1.98;;
57828;SDS011;43657;52.698;6.314;2022-09-17T17:25:10;9.15;;;1.70;;
57828;SDS011;43657;52.698;6.314;2022-09-17T17:27:37;8.68;;;1.73;;
57828;SDS011;43657;52.698;6.314;2022-09-17T17:30:04;11.68;;;2.38;;
57828;SDS011;43657;52.698;6.314;2022-09-17T17:32:31;9.75;;;1.67;;
57828;SDS011;43657;52.698;6.314;2022-09-17T17:34:58;10.88;;;1.85;;
57828;SDS011;43657;52.698;6.314;2022-09-17T17:37:23;8.75;;;1.65;;
57828;SDS011;43657;52.698;6.314;2022-09-17T17:39:49;9.98;;;1.90;;
57828;SDS011;43657;52.698;6.314;2022-09-17T17:42:15;8.38;;;1.50;;
57828;SDS011;43657;52.698;6.314;2022-09-17T17:44:41;10.32;;;2.42;;
57828;SDS011;43657;52.698;6.314;2022-09-17T17:47:06;9.88;;;1.80;;
57828;SDS011;43657;52.698;6.314;2022-09-17T17:49:32;7.35;;;1.45;;
57828;SDS011;43657;52.698;6.314;2022-09-17T17:51:58;10.73;;;1.67;;
57828;SDS011;43657;52.698;6.314;2022-09-17T17:54:24;6.35;;;1.10;;
57828;SDS011;43657;52.698;6.314;2022-09-17T17:56:52;6.88;;;1.25;;
57828;SDS011;43657;52.698;6.314;2022-09-17T17:59:18;5.30;;;1.73;;
57828;SDS011;43657;52.698;6.314;2022-09-17T18:01:43;6.70;;;1.35;;
57828;SDS011;43657;52.698;6.314;2022-09-17T18:04:09;7.43;;;1.40;;
57828;SDS011;43657;52.698;6.314;2022-09-17T18:06:34;6.78;;;0.90;;
57828;SDS011;43657;52.698;6.314;2022-09-17T18:09:00;4.45;;;1.10;;
57828;SDS011;43657;52.698;6.314;2022-09-17T18:11:26;5.68;;;1.02;;
57828;SDS011;43657;52.698;6.314;2022-09-17T18:13:53;6.35;;;1.08;;
57828;SDS011;43657;52.698;6.314;2022-09-17T18:16:20;8.27;;;1.30;;
57828;SDS011;43657;52.698;6.314;2022-09-17T18:18:46;4.70;;;0.90;;
57828;SDS011;43657;52.698;6.314;2022-09-17T18:21:19;5.30;;;1.15;;
57828;SDS011;43657;52.698;6.314;2022-09-17T18:23:46;9.30;;;1.50;;
57828;SDS011;43657;52.698;6.314;2022-09-17T18:26:20;11.38;;;1.75;;
57828;SDS011;43657;52.698;6.314;2022-09-17T18:28:47;8.60;;;1.33;;
57828;SDS011;43657;52.698;6.314;2022-09-17T18:31:24;7.05;;;1.42;;
57828;SDS011;43657;52.698;6.314;2022-09-17T18:33:54;6.50;;;1.33;;
57828;SDS011;43657;52.698;6.314;2022-09-17T18:36:21;7.10;;;1.30;;
57828;SDS011;43657;52.698;6.314;2022-09-17T18:38:51;6.82;;;1.33;;
57828;SDS011;43657;52.698;6.314;2022-09-17T18:41:17;6.38;;;1.48;;
57828;SDS011;43657;52.698;6.314;2022-09-17T18:43:43;12.30;;;1.80;;
57828;SDS011;43657;52.698;6.314;2022-09-17T18:46:08;7.70;;;1.45;;
57828;SDS011;43657;52.698;6.314;2022-09-17T18:48:34;9.95;;;1.52;;
57828;SDS011;43657;52.698;6.314;2022-09-17T18:51:01;7.60;;;1.63;;
57828;SDS011;43657;52.698;6.314;2022-09-17T18:53:29;7.32;;;1.52;;
57828;SDS011;43657;52.698;6.314;2022-09-17T18:55:58;8.52;;;1.80;;
57828;SDS011;43657;52.698;6.314;2022-09-17T18:58:26;7.82;;;1.92;;